sensor_id;sensor_type;location;lat;lon;timestamp;P1;durP1;ratioP1;P2;durP2;ratioP2
13197;SDS011;6664;52.514;13.440;2023-06-14T00:00:26;2.00;;;1.77;;
13197;SDS011;6664;52.514;13.440;2023-06-14T00:03:12;2.33;;;1.90;;
13197;SDS011;6664;52.514;13.440;2023-06-14T00:06:02;1.67;;;1.57;;
13197;SDS011;6664;52.514;13.440;2023-06-14T00:08:48;2.13;;;2.03;;
13197;SDS011;6664;52.514;13.440;2023-06-14T00:11:34;1.77;;;1.40;;
13197;SDS011;6664;52.514;13.440;2023-06-14T00:14:19;1.83;;;1.73;;
13197;SDS011;6664;52.514;13.440;2023-06-14T00:17:05;3.00;;;1.60;;
13197;SDS011;6664;52.514;13.440;2023-06-14T00:19:53;1.63;;;1.53;;
13197;SDS011;6664;52.514;13.440;2023-06-14T00:22:39;2.90;;;1.70;;
13197;SDS011;6664;52.514;13.440;2023-06-14T00:25:26;1.73;;;1.63;;
13197;SDS011;6664;52.514;13.440;2023-06-14T00:28:14;4.10;;;1.70;;
13197;SDS011;6664;52.514;13.440;2023-06-14T00:31:00;2.53;;;2.07;;
13197;SDS011;6664;52.514;13.440;2023-06-14T00:33:45;2.23;;;2.03;;
13197;SDS011;6664;52.514;13.440;2023-06-14T00:36:33;1.90;;;1.80;;
13197;SDS011;6664;52.514;13.440;2023-06-14T00:39:19;3.00;;;1.97;;
13197;SDS011;6664;52.514;13.440;2023-06-14T00:42:05;1.90;;;1.80;;
13197;SDS011;6664;52.514;13.440;2023-06-14T00:44:51;3.00;;;2.23;;
13197;SDS011;6664;52.514;13.440;2023-06-14T00:47:37;1.97;;;1.87;;
13197;SDS011;6664;52.514;13.440;2023-06-14T00:50:26;2.20;;;1.70;;
13197;SDS011;6664;52.514;13.440;2023-06-14T00:53:12;2.30;;;2.13;;
13197;SDS011;6664;52.514;13.440;2023-06-14T00:56:00;2.60;;;2.40;;
13197;SDS011;6664;52.514;13.440;2023-06-14T00:58:46;2.83;;;2.20;;
13197;SDS011;6664;52.514;13.440;2023-06-14T01:01:34;2.27;;;2.17;;
13197;SDS011;6664;52.514;13.440;2023-06-14T01:04:20;2.70;;;2.20;;
13197;SDS011;6664;52.514;13.440;2023-06-14T01:16:13;2.27;;;2.17;;
13197;SDS011;6664;52.514;13.440;2023-06-14T01:19:00;3.17;;;2.80;;
13197;SDS011;6664;52.514;13.440;2023-06-14T01:21:47;4.30;;;2.80;;
13197;SDS011;6664;52.514;13.440;2023-06-14T01:24:36;2.90;;;2.50;;
13197;SDS011;6664;52.514;13.440;2023-06-14T01:27:24;2.57;;;2.37;;
13197;SDS011;6664;52.514;13.440;2023-06-14T01:30:13;6.83;;;2.47;;
13197;SDS011;6664;52.514;13.440;2023-06-14T01:32:59;4.63;;;3.23;;
13197;SDS011;6664;52.514;13.440;2023-06-14T01:35:50;2.90;;;2.70;;
13197;SDS011;6664;52.514;13.440;2023-06-14T01:38:37;2.60;;;2.10;;
13197;SDS011;6664;52.514;13.440;2023-06-14T01:41:22;3.90;;;3.17;;
13197;SDS011;6664;52.514;13.440;2023-06-14T01:44:10;6.47;;;2.60;;
13197;SDS011;6664;52.514;13.440;2023-06-14T01:46:58;3.93;;;2.83;;
13197;SDS011;6664;52.514;13.440;2023-06-14T01:49:47;2.80;;;2.60;;
13197;SDS011;6664;52.514;13.440;2023-06-14T01:52:32;2.93;;;2.73;;
13197;SDS011;6664;52.514;13.440;2023-06-14T01:55:18;2.90;;;2.70;;
13197;SDS011;6664;52.514;13.440;2023-06-14T01:58:06;2.83;;;2.53;;
13197;SDS011;6664;52.514;13.440;2023-06-14T02:00:52;3.27;;;3.07;;
13197;SDS011;6664;52.514;13.440;2023-06-14T02:03:42;5.27;;;3.20;;
13197;SDS011;6664;52.514;13.440;2023-06-14T02:06:30;3.30;;;3.00;;
13197;SDS011;6664;52.514;13.440;2023-06-14T02:09:15;2.93;;;2.63;;
13197;SDS011;6664;52.514;13.440;2023-06-14T02:12:02;8.40;;;3.23;;
13197;SDS011;6664;52.514;13.440;2023-06-14T02:14:47;4.43;;;2.70;;
13197;SDS011;6664;52.514;13.440;2023-06-14T02:17:33;3.57;;;2.90;;
13197;SDS011;6664;52.514;13.440;2023-06-14T02:20:20;3.77;;;2.73;;
13197;SDS011;6664;52.514;13.440;2023-06-14T02:23:06;4.77;;;2.67;;
13197;SDS011;6664;52.514;13.440;2023-06-14T02:25:52;4.33;;;3.60;;
13197;SDS011;6664;52.514;13.440;2023-06-14T02:28:38;5.13;;;3.20;;
13197;SDS011;6664;52.514;13.440;2023-06-14T02:31:26;4.37;;;3.63;;
13197;SDS011;6664;52.514;13.440;2023-06-14T02:34:14;6.00;;;3.07;;
13197;SDS011;6664;52.514;13.440;2023-06-14T02:37:02;3.50;;;3.20;;
13197;SDS011;6664;52.514;13.440;2023-06-14T02:39:48;3.43;;;3.13;;
13197;SDS011;6664;52.514;13.440;2023-06-14T02:42:33;5.10;;;3.27;;
13197;SDS011;6664;52.514;13.440;2023-06-14T02:45:21;4.23;;;3.50;;
13197;SDS011;6664;52.514;13.440;2023-06-14T02:48:07;3.60;;;3.30;;
13197;SDS011;6664;52.514;13.440;2023-06-14T02:50:53;3.60;;;3.30;;
13197;SDS011;6664;52.514;13.440;2023-06-14T02:53:41;3.50;;;2.70;;
13197;SDS011;6664;52.514;13.440;2023-06-14T02:56:30;3.57;;;3.23;;
13197;SDS011;6664;52.514;13.440;2023-06-14T02:59:15;4.47;;;3.43;;
13197;SDS011;6664;52.514;13.440;2023-06-14T03:02:01;6.60;;;3.67;;
13197;SDS011;6664;52.514;13.440;2023-06-14T03:04:47;3.73;;;3.43;;
13197;SDS011;6664;52.514;13.440;2023-06-14T03:07:35;7.23;;;3.30;;
13197;SDS011;6664;52.514;13.440;2023-06-14T03:10:25;4.37;;;3.37;;
13197;SDS011;6664;52.514;13.440;2023-06-14T03:13:17;5.10;;;3.03;;
13197;SDS011;6664;52.514;13.440;2023-06-14T03:16:07;3.67;;;3.27;;
13197;SDS011;6664;52.514;13.440;2023-06-14T03:18:54;5.80;;;3.73;;
13197;SDS011;6664;52.514;13.440;2023-06-14T03:21:41;3.20;;;3.00;;
13197;SDS011;6664;52.514;13.440;2023-06-14T03:24:29;3.83;;;3.47;;
13197;SDS011;6664;52.514;13.440;2023-06-14T03:27:22;3.43;;;3.13;;
13197;SDS011;6664;52.514;13.440;2023-06-14T03:30:07;7.73;;;3.67;;
13197;SDS011;6664;52.514;13.440;2023-06-14T03:32:54;4.23;;;2.97;;
13197;SDS011;6664;52.514;13.440;2023-06-14T03:35:40;3.83;;;3.40;;
13197;SDS011;6664;52.514;13.440;2023-06-14T03:38:26;5.20;;;3.47;;
13197;SDS011;6664;52.514;13.440;2023-06-14T03:41:15;3.60;;;3.07;;
13197;SDS011;6664;52.514;13.440;2023-06-14T03:44:01;8.03;;;3.33;;
13197;SDS011;6664;52.514;13.440;2023-06-14T03:46:47;5.97;;;4.20;;
13197;SDS011;6664;52.514;13.440;2023-06-14T03:49:33;4.07;;;3.67;;
13197;SDS011;6664;52.514;13.440;2023-06-14T03:52:18;8.13;;;4.63;;
13197;SDS011;6664;52.514;13.440;2023-06-14T03:55:04;6.13;;;3.80;;
13197;SDS011;6664;52.514;13.440;2023-06-14T03:57:53;4.97;;;3.50;;
13197;SDS011;6664;52.514;13.440;2023-06-14T04:00:38;3.70;;;3.40;;
13197;SDS011;6664;52.514;13.440;2023-06-14T04:03:26;5.13;;;3.60;;
13197;SDS011;6664;52.514;13.440;2023-06-14T04:06:15;6.07;;;4.20;;
13197;SDS011;6664;52.514;13.440;2023-06-14T04:09:04;4.50;;;3.80;;
13197;SDS011;6664;52.514;13.440;2023-06-14T04:11:52;8.90;;;4.40;;
13197;SDS011;6664;52.514;13.440;2023-06-14T04:14:42;4.60;;;3.30;;
13197;SDS011;6664;52.514;13.440;2023-06-14T04:17:28;3.40;;;3.13;;
13197;SDS011;6664;52.514;13.440;2023-06-14T04:20:14;3.50;;;3.20;;
13197;SDS011;6664;52.514;13.440;2023-06-14T04:26:03;4.30;;;3.60;;
13197;SDS011;6664;52.514;13.440;2023-06-14T04:28:49;7.73;;;3.87;;
13197;SDS011;6664;52.514;13.440;2023-06-14T04:31:35;4.60;;;3.80;;
13197;SDS011;6664;52.514;13.440;2023-06-14T04:34:22;3.83;;;3.53;;
13197;SDS011;6664;52.514;13.440;2023-06-14T04:37:11;3.73;;;3.37;;
13197;SDS011;6664;52.514;13.440;2023-06-14T04:39:57;5.40;;;4.07;;
13197;SDS011;6664;52.514;13.440;2023-06-14T04:42:42;6.57;;;4.20;;
13197;SDS011;6664;52.514;13.440;2023-06-14T04:45:31;4.50;;;3.67;;
13197;SDS011;6664;52.514;13.440;2023-06-14T04:48:16;4.43;;;3.97;;
13197;SDS011;6664;52.514;13.440;2023-06-14T04:51:04;4.57;;;4.17;;
13197;SDS011;6664;52.514;13.440;2023-06-14T04:53:51;4.70;;;3.73;;
13197;SDS011;6664;52.514;13.440;2023-06-14T04:56:37;6.83;;;4.43;;
13197;SDS011;6664;52.514;13.440;2023-06-14T04:59:23;7.60;;;5.00;;
13197;SDS011;6664;52.514;13.440;2023-06-14T05:02:08;7.67;;;3.90;;
13197;SDS011;6664;52.514;13.440;2023-06-14T05:04:54;7.63;;;4.80;;
13197;SDS011;6664;52.514;13.440;2023-06-14T05:07:42;4.93;;;3.60;;
13197;SDS011;6664;52.514;13.440;2023-06-14T05:10:28;4.50;;;3.80;;
13197;SDS011;6664;52.514;13.440;2023-06-14T05:13:13;4.60;;;4.20;;
13197;SDS011;6664;52.514;13.440;2023-06-14T05:15:59;15.30;;;3.37;;
13197;SDS011;6664;52.514;13.440;2023-06-14T05:18:45;7.87;;;3.80;;
13197;SDS011;6664;52.514;13.440;2023-06-14T05:21:32;3.73;;;3.43;;
13197;SDS011;6664;52.514;13.440;2023-06-14T05:24:27;4.17;;;3.80;;
13197;SDS011;6664;52.514;13.440;2023-06-14T05:27:14;5.90;;;4.03;;
13197;SDS011;6664;52.514;13.440;2023-06-14T05:30:01;11.23;;;5.20;;
13197;SDS011;6664;52.514;13.440;2023-06-14T05:32:46;5.53;;;3.90;;
13197;SDS011;6664;52.514;13.440;2023-06-14T05:35:32;6.00;;;3.80;;
13197;SDS011;6664;52.514;13.440;2023-06-14T05:38:20;5.50;;;4.13;;
13197;SDS011;6664;52.514;13.440;2023-06-14T05:41:08;3.17;;;2.87;;
13197;SDS011;6664;52.514;13.440;2023-06-14T05:43:54;6.77;;;3.50;;
13197;SDS011;6664;52.514;13.440;2023-06-14T05:46:40;3.27;;;3.00;;
13197;SDS011;6664;52.514;13.440;2023-06-14T05:49:26;3.83;;;3.40;;
13197;SDS011;6664;52.514;13.440;2023-06-14T05:52:12;7.27;;;3.90;;
13197;SDS011;6664;52.514;13.440;2023-06-14T05:55:00;3.77;;;3.47;;
13197;SDS011;6664;52.514;13.440;2023-06-14T05:57:46;16.20;;;3.70;;
13197;SDS011;6664;52.514;13.440;2023-06-14T06:00:32;4.37;;;3.60;;
13197;SDS011;6664;52.514;13.440;2023-06-14T06:03:18;3.77;;;3.43;;
13197;SDS011;6664;52.514;13.440;2023-06-14T06:06:04;6.40;;;3.80;;
13197;SDS011;6664;52.514;13.440;2023-06-14T06:08:53;5.33;;;3.73;;
13197;SDS011;6664;52.514;13.440;2023-06-14T06:11:38;13.60;;;3.80;;
13197;SDS011;6664;52.514;13.440;2023-06-14T06:14:37;5.53;;;3.10;;
13197;SDS011;6664;52.514;13.440;2023-06-14T06:17:22;5.97;;;3.50;;
13197;SDS011;6664;52.514;13.440;2023-06-14T06:20:08;4.70;;;3.40;;
13197;SDS011;6664;52.514;13.440;2023-06-14T06:22:54;2.90;;;2.60;;
13197;SDS011;6664;52.514;13.440;2023-06-14T06:25:40;9.10;;;3.50;;
13197;SDS011;6664;52.514;13.440;2023-06-14T06:28:26;3.90;;;3.60;;
13197;SDS011;6664;52.514;13.440;2023-06-14T06:31:12;3.80;;;3.43;;
13197;SDS011;6664;52.514;13.440;2023-06-14T06:34:00;6.20;;;3.90;;
13197;SDS011;6664;52.514;13.440;2023-06-14T06:36:45;3.80;;;3.00;;
13197;SDS011;6664;52.514;13.440;2023-06-14T06:39:35;3.77;;;3.47;;
13197;SDS011;6664;52.514;13.440;2023-06-14T06:42:24;5.00;;;3.50;;
13197;SDS011;6664;52.514;13.440;2023-06-14T06:45:12;3.90;;;3.00;;
13197;SDS011;6664;52.514;13.440;2023-06-14T06:48:00;4.63;;;3.37;;
13197;SDS011;6664;52.514;13.440;2023-06-14T06:50:48;3.70;;;3.37;;
13197;SDS011;6664;52.514;13.440;2023-06-14T06:53:36;3.97;;;2.97;;
13197;SDS011;6664;52.514;13.440;2023-06-14T06:56:32;3.20;;;2.90;;
13197;SDS011;6664;52.514;13.440;2023-06-14T06:59:17;5.63;;;2.73;;
13197;SDS011;6664;52.514;13.440;2023-06-14T07:02:06;3.50;;;2.97;;
13197;SDS011;6664;52.514;13.440;2023-06-14T07:04:54;4.93;;;3.27;;
13197;SDS011;6664;52.514;13.440;2023-06-14T07:07:44;3.67;;;3.23;;
13197;SDS011;6664;52.514;13.440;2023-06-14T07:10:30;16.93;;;3.60;;
13197;SDS011;6664;52.514;13.440;2023-06-14T07:13:16;4.03;;;2.87;;
13197;SDS011;6664;52.514;13.440;2023-06-14T07:16:03;3.83;;;3.37;;
13197;SDS011;6664;52.514;13.440;2023-06-14T07:18:50;4.80;;;2.97;;
13197;SDS011;6664;52.514;13.440;2023-06-14T07:21:36;6.43;;;3.77;;
13197;SDS011;6664;52.514;13.440;2023-06-14T07:24:24;10.00;;;3.40;;
13197;SDS011;6664;52.514;13.440;2023-06-14T07:27:10;3.17;;;2.87;;
13197;SDS011;6664;52.514;13.440;2023-06-14T07:30:02;4.60;;;3.43;;
13197;SDS011;6664;52.514;13.440;2023-06-14T07:32:54;4.00;;;3.33;;
13197;SDS011;6664;52.514;13.440;2023-06-14T07:35:42;3.70;;;2.97;;
13197;SDS011;6664;52.514;13.440;2023-06-14T07:38:28;3.83;;;2.53;;
13197;SDS011;6664;52.514;13.440;2023-06-14T07:41:13;3.97;;;3.67;;
13197;SDS011;6664;52.514;13.440;2023-06-14T07:44:01;5.80;;;3.70;;
13197;SDS011;6664;52.514;13.440;2023-06-14T07:46:47;3.50;;;3.10;;
13197;SDS011;6664;52.514;13.440;2023-06-14T07:49:35;5.53;;;3.20;;
13197;SDS011;6664;52.514;13.440;2023-06-14T07:52:21;4.50;;;2.80;;
13197;SDS011;6664;52.514;13.440;2023-06-14T07:55:09;5.23;;;3.40;;
13197;SDS011;6664;52.514;13.440;2023-06-14T07:58:00;10.10;;;3.80;;
13197;SDS011;6664;52.514;13.440;2023-06-14T08:00:48;6.73;;;2.67;;
13197;SDS011;6664;52.514;13.440;2023-06-14T08:03:35;5.80;;;2.73;;
13197;SDS011;6664;52.514;13.440;2023-06-14T08:06:22;3.80;;;2.40;;
13197;SDS011;6664;52.514;13.440;2023-06-14T08:09:10;4.50;;;2.70;;
13197;SDS011;6664;52.514;13.440;2023-06-14T08:11:56;3.33;;;3.13;;
13197;SDS011;6664;52.514;13.440;2023-06-14T08:14:42;2.60;;;2.40;;
13197;SDS011;6664;52.514;13.440;2023-06-14T08:17:27;3.93;;;2.33;;
13197;SDS011;6664;52.514;13.440;2023-06-14T08:20:15;4.00;;;2.50;;
13197;SDS011;6664;52.514;13.440;2023-06-14T08:23:02;5.90;;;2.50;;
13197;SDS011;6664;52.514;13.440;2023-06-14T08:25:49;3.30;;;2.40;;
13197;SDS011;6664;52.514;13.440;2023-06-14T08:28:38;3.00;;;2.37;;
13197;SDS011;6664;52.514;13.440;2023-06-14T08:31:24;5.10;;;2.30;;
13197;SDS011;6664;52.514;13.440;2023-06-14T08:34:10;3.20;;;2.90;;
13197;SDS011;6664;52.514;13.440;2023-06-14T08:36:56;5.97;;;2.63;;
13197;SDS011;6664;52.514;13.440;2023-06-14T08:39:43;2.73;;;2.17;;
13197;SDS011;6664;52.514;13.440;2023-06-14T08:42:29;14.30;;;2.57;;
13197;SDS011;6664;52.514;13.440;2023-06-14T08:45:17;2.43;;;2.30;;
13197;SDS011;6664;52.514;13.440;2023-06-14T08:48:03;2.50;;;2.30;;
13197;SDS011;6664;52.514;13.440;2023-06-14T08:50:51;2.70;;;2.07;;
13197;SDS011;6664;52.514;13.440;2023-06-14T08:53:48;2.93;;;2.40;;
13197;SDS011;6664;52.514;13.440;2023-06-14T08:56:38;3.30;;;2.27;;
13197;SDS011;6664;52.514;13.440;2023-06-14T08:59:26;2.37;;;2.17;;
13197;SDS011;6664;52.514;13.440;2023-06-14T09:02:13;2.60;;;2.40;;
13197;SDS011;6664;52.514;13.440;2023-06-14T09:05:02;2.60;;;2.10;;
13197;SDS011;6664;52.514;13.440;2023-06-14T09:07:49;6.37;;;2.27;;
13197;SDS011;6664;52.514;13.440;2023-06-14T09:10:35;2.33;;;2.10;;
13197;SDS011;6664;52.514;13.440;2023-06-14T09:13:26;9.30;;;2.20;;
13197;SDS011;6664;52.514;13.440;2023-06-14T09:16:15;6.03;;;2.50;;
13197;SDS011;6664;52.514;13.440;2023-06-14T09:19:01;2.17;;;1.67;;
13197;SDS011;6664;52.514;13.440;2023-06-14T09:21:47;3.00;;;2.40;;
13197;SDS011;6664;52.514;13.440;2023-06-14T09:24:36;2.60;;;2.23;;
13197;SDS011;6664;52.514;13.440;2023-06-14T09:27:21;3.50;;;1.67;;
13197;SDS011;6664;52.514;13.440;2023-06-14T09:30:10;7.70;;;1.90;;
13197;SDS011;6664;52.514;13.440;2023-06-14T09:32:57;4.40;;;2.37;;
13197;SDS011;6664;52.514;13.440;2023-06-14T09:35:46;2.23;;;1.80;;
13197;SDS011;6664;52.514;13.440;2023-06-14T09:38:35;2.80;;;2.30;;
13197;SDS011;6664;52.514;13.440;2023-06-14T09:41:31;2.27;;;2.00;;
13197;SDS011;6664;52.514;13.440;2023-06-14T09:44:17;2.77;;;2.30;;
13197;SDS011;6664;52.514;13.440;2023-06-14T09:47:08;5.90;;;2.60;;
13197;SDS011;6664;52.514;13.440;2023-06-14T09:49:54;9.63;;;2.20;;
13197;SDS011;6664;52.514;13.440;2023-06-14T09:52:40;2.27;;;2.17;;
13197;SDS011;6664;52.514;13.440;2023-06-14T09:55:34;10.33;;;2.10;;
13197;SDS011;6664;52.514;13.440;2023-06-14T09:58:21;10.67;;;2.20;;
13197;SDS011;6664;52.514;13.440;2023-06-14T10:01:13;2.23;;;2.03;;
13197;SDS011;6664;52.514;13.440;2023-06-14T10:04:04;2.40;;;2.10;;
13197;SDS011;6664;52.514;13.440;2023-06-14T10:06:55;3.70;;;2.23;;
13197;SDS011;6664;52.514;13.440;2023-06-14T10:09:42;3.33;;;2.30;;
13197;SDS011;6664;52.514;13.440;2023-06-14T10:12:33;5.33;;;2.77;;
13197;SDS011;6664;52.514;13.440;2023-06-14T10:15:31;3.43;;;2.60;;
13197;SDS011;6664;52.514;13.440;2023-06-14T10:24:32;3.40;;;2.70;;
13197;SDS011;6664;52.514;13.440;2023-06-14T10:27:26;2.03;;;1.93;;
13197;SDS011;6664;52.514;13.440;2023-06-14T10:30:14;2.30;;;2.10;;
13197;SDS011;6664;52.514;13.440;2023-06-14T10:33:04;3.30;;;2.37;;
13197;SDS011;6664;52.514;13.440;2023-06-14T10:36:06;2.43;;;2.30;;
13197;SDS011;6664;52.514;13.440;2023-06-14T10:39:04;4.70;;;2.20;;
13197;SDS011;6664;52.514;13.440;2023-06-14T10:42:07;2.70;;;1.83;;
13197;SDS011;6664;52.514;13.440;2023-06-14T10:44:57;2.37;;;2.17;;
13197;SDS011;6664;52.514;13.440;2023-06-14T10:47:45;2.50;;;2.30;;
13197;SDS011;6664;52.514;13.440;2023-06-14T10:50:37;4.60;;;2.20;;
13197;SDS011;6664;52.514;13.440;2023-06-14T10:53:30;5.70;;;2.43;;
13197;SDS011;6664;52.514;13.440;2023-06-14T10:56:28;4.87;;;2.20;;
13197;SDS011;6664;52.514;13.440;2023-06-14T10:59:17;7.30;;;1.93;;
13197;SDS011;6664;52.514;13.440;2023-06-14T11:05:05;2.47;;;2.27;;
13197;SDS011;6664;52.514;13.440;2023-06-14T11:11:14;3.50;;;2.73;;
13197;SDS011;6664;52.514;13.440;2023-06-14T11:14:00;3.43;;;1.80;;
13197;SDS011;6664;52.514;13.440;2023-06-14T11:16:48;5.80;;;2.07;;
13197;SDS011;6664;52.514;13.440;2023-06-14T11:19:37;3.30;;;2.20;;
13197;SDS011;6664;52.514;13.440;2023-06-14T11:22:22;2.10;;;1.97;;
13197;SDS011;6664;52.514;13.440;2023-06-14T11:25:12;2.50;;;2.30;;
13197;SDS011;6664;52.514;13.440;2023-06-14T11:27:59;2.43;;;2.23;;
13197;SDS011;6664;52.514;13.440;2023-06-14T11:30:45;2.40;;;2.20;;
13197;SDS011;6664;52.514;13.440;2023-06-14T11:33:34;7.10;;;3.00;;
13197;SDS011;6664;52.514;13.440;2023-06-14T11:36:24;3.13;;;2.30;;
13197;SDS011;6664;52.514;13.440;2023-06-14T11:39:23;6.00;;;1.97;;
13197;SDS011;6664;52.514;13.440;2023-06-14T11:42:15;5.03;;;2.20;;
13197;SDS011;6664;52.514;13.440;2023-06-14T11:45:01;3.00;;;2.00;;
13197;SDS011;6664;52.514;13.440;2023-06-14T11:47:55;3.77;;;2.20;;
13197;SDS011;6664;52.514;13.440;2023-06-14T11:50:41;2.77;;;2.30;;
13197;SDS011;6664;52.514;13.440;2023-06-14T11:53:29;3.90;;;2.20;;
13197;SDS011;6664;52.514;13.440;2023-06-14T11:56:15;2.43;;;1.70;;
13197;SDS011;6664;52.514;13.440;2023-06-14T11:59:05;2.03;;;1.80;;
13197;SDS011;6664;52.514;13.440;2023-06-14T12:01:52;2.03;;;1.83;;
13197;SDS011;6664;52.514;13.440;2023-06-14T12:04:43;2.40;;;2.00;;
13197;SDS011;6664;52.514;13.440;2023-06-14T12:07:35;4.60;;;2.40;;
13197;SDS011;6664;52.514;13.440;2023-06-14T12:10:27;2.70;;;2.07;;
13197;SDS011;6664;52.514;13.440;2023-06-14T12:13:24;3.20;;;2.33;;
13197;SDS011;6664;52.514;13.440;2023-06-14T12:16:12;2.43;;;2.23;;
13197;SDS011;6664;52.514;13.440;2023-06-14T12:19:00;2.40;;;2.20;;
13197;SDS011;6664;52.514;13.440;2023-06-14T12:21:48;1.83;;;1.70;;
13197;SDS011;6664;52.514;13.440;2023-06-14T12:24:40;2.60;;;2.03;;
13197;SDS011;6664;52.514;13.440;2023-06-14T12:27:30;2.50;;;2.30;;
13197;SDS011;6664;52.514;13.440;2023-06-14T12:30:16;1.50;;;1.40;;
13197;SDS011;6664;52.514;13.440;2023-06-14T12:33:02;2.20;;;2.07;;
13197;SDS011;6664;52.514;13.440;2023-06-14T12:35:49;2.40;;;2.00;;
13197;SDS011;6664;52.514;13.440;2023-06-14T12:38:36;2.00;;;1.90;;
13197;SDS011;6664;52.514;13.440;2023-06-14T12:41:21;5.70;;;1.60;;
13197;SDS011;6664;52.514;13.440;2023-06-14T12:44:07;1.63;;;1.52;;
13197;SDS011;6664;52.514;13.440;2023-06-14T12:46:53;3.30;;;1.88;;
13197;SDS011;6664;52.514;13.440;2023-06-14T12:49:42;3.38;;;1.77;;
13197;SDS011;6664;52.514;13.440;2023-06-14T12:52:27;3.40;;;1.60;;
13197;SDS011;6664;52.514;13.440;2023-06-14T12:55:13;3.67;;;1.35;;
13197;SDS011;6664;52.514;13.440;2023-06-14T12:57:59;1.60;;;1.50;;
13197;SDS011;6664;52.514;13.440;2023-06-14T13:00:46;3.78;;;1.33;;
13197;SDS011;6664;52.514;13.440;2023-06-14T13:03:32;5.18;;;1.38;;
13197;SDS011;6664;52.514;13.440;2023-06-14T13:06:22;1.27;;;1.17;;
13197;SDS011;6664;52.514;13.440;2023-06-14T13:09:10;1.58;;;1.58;;
13197;SDS011;6664;52.514;13.440;2023-06-14T13:11:55;1.20;;;1.20;;
13197;SDS011;6664;52.514;13.440;2023-06-14T13:14:43;1.20;;;1.20;;
13197;SDS011;6664;52.514;13.440;2023-06-14T13:17:31;2.53;;;1.10;;
13197;SDS011;6664;52.514;13.440;2023-06-14T13:20:23;1.45;;;1.35;;
13197;SDS011;6664;52.514;13.440;2023-06-14T13:23:09;1.30;;;1.15;;
13197;SDS011;6664;52.514;13.440;2023-06-14T13:25:55;2.25;;;1.45;;
13197;SDS011;6664;52.514;13.440;2023-06-14T13:28:40;2.92;;;1.60;;
13197;SDS011;6664;52.514;13.440;2023-06-14T13:31:26;1.40;;;1.30;;
13197;SDS011;6664;52.514;13.440;2023-06-14T13:34:12;3.15;;;1.85;;
13197;SDS011;6664;52.514;13.440;2023-06-14T13:37:00;2.67;;;1.67;;
13197;SDS011;6664;52.514;13.440;2023-06-14T13:39:46;1.33;;;1.23;;
13197;SDS011;6664;52.514;13.440;2023-06-14T13:42:34;1.40;;;1.30;;
13197;SDS011;6664;52.514;13.440;2023-06-14T13:45:22;1.45;;;1.30;;
13197;SDS011;6664;52.514;13.440;2023-06-14T13:48:07;2.80;;;1.60;;
13197;SDS011;6664;52.514;13.440;2023-06-14T13:50:53;6.40;;;1.50;;
13197;SDS011;6664;52.514;13.440;2023-06-14T13:53:38;1.67;;;1.10;;
13197;SDS011;6664;52.514;13.440;2023-06-14T13:56:24;1.40;;;1.30;;
13197;SDS011;6664;52.514;13.440;2023-06-14T13:59:12;1.10;;;1.10;;
13197;SDS011;6664;52.514;13.440;2023-06-14T14:01:58;6.38;;;1.45;;
13197;SDS011;6664;52.514;13.440;2023-06-14T14:04:44;1.33;;;1.33;;
13197;SDS011;6664;52.514;13.440;2023-06-14T14:07:36;1.45;;;1.30;;
13197;SDS011;6664;52.514;13.440;2023-06-14T14:10:25;1.63;;;1.52;;
13197;SDS011;6664;52.514;13.440;2023-06-14T14:13:13;1.48;;;1.38;;
13197;SDS011;6664;52.514;13.440;2023-06-14T14:15:59;1.75;;;1.65;;
13197;SDS011;6664;52.514;13.440;2023-06-14T14:18:45;5.63;;;1.85;;
13197;SDS011;6664;52.514;13.440;2023-06-14T14:21:31;1.88;;;1.50;;
13197;SDS011;6664;52.514;13.440;2023-06-14T14:24:17;2.38;;;1.50;;
13197;SDS011;6664;52.514;13.440;2023-06-14T14:27:03;1.95;;;1.85;;
13197;SDS011;6664;52.514;13.440;2023-06-14T14:29:51;2.53;;;1.98;;
13197;SDS011;6664;52.514;13.440;2023-06-14T14:32:37;1.90;;;1.80;;
13197;SDS011;6664;52.514;13.440;2023-06-14T14:35:23;2.10;;;1.90;;
13197;SDS011;6664;52.514;13.440;2023-06-14T14:38:10;2.00;;;1.87;;
13197;SDS011;6664;52.514;13.440;2023-06-14T14:40:57;6.27;;;2.50;;
13197;SDS011;6664;52.514;13.440;2023-06-14T14:43:43;3.70;;;1.77;;
13197;SDS011;6664;52.514;13.440;2023-06-14T14:46:29;2.20;;;1.93;;
13197;SDS011;6664;52.514;13.440;2023-06-14T14:49:15;3.80;;;1.83;;
13197;SDS011;6664;52.514;13.440;2023-06-14T14:52:02;3.63;;;2.17;;
13197;SDS011;6664;52.514;13.440;2023-06-14T14:55:02;2.10;;;1.80;;
13197;SDS011;6664;52.514;13.440;2023-06-14T14:57:48;2.70;;;2.23;;
13197;SDS011;6664;52.514;13.440;2023-06-14T15:00:34;6.40;;;2.07;;
13197;SDS011;6664;52.514;13.440;2023-06-14T15:03:20;4.63;;;2.47;;
13197;SDS011;6664;52.514;13.440;2023-06-14T15:06:06;5.80;;;2.13;;
13197;SDS011;6664;52.514;13.440;2023-06-14T15:08:56;6.40;;;2.17;;
13197;SDS011;6664;52.514;13.440;2023-06-14T15:11:42;4.83;;;2.33;;
13197;SDS011;6664;52.514;13.440;2023-06-14T15:14:29;2.33;;;2.13;;
13197;SDS011;6664;52.514;13.440;2023-06-14T15:17:15;2.83;;;2.50;;
13197;SDS011;6664;52.514;13.440;2023-06-14T15:20:01;1.97;;;1.70;;
13197;SDS011;6664;52.514;13.440;2023-06-14T15:22:47;1.97;;;1.73;;
13197;SDS011;6664;52.514;13.440;2023-06-14T15:25:35;3.10;;;2.33;;
13197;SDS011;6664;52.514;13.440;2023-06-14T15:28:23;4.43;;;2.33;;
13197;SDS011;6664;52.514;13.440;2023-06-14T15:31:13;2.70;;;2.10;;
13197;SDS011;6664;52.514;13.440;2023-06-14T15:34:01;5.20;;;2.10;;
13197;SDS011;6664;52.514;13.440;2023-06-14T15:36:47;2.40;;;2.10;;
13197;SDS011;6664;52.514;13.440;2023-06-14T15:39:33;7.00;;;1.90;;
13197;SDS011;6664;52.514;13.440;2023-06-14T15:42:20;4.07;;;3.00;;
13197;SDS011;6664;52.514;13.440;2023-06-14T15:45:05;6.30;;;1.80;;
13197;SDS011;6664;52.514;13.440;2023-06-14T15:47:51;3.93;;;2.00;;
13197;SDS011;6664;52.514;13.440;2023-06-14T15:50:37;2.20;;;1.97;;
13197;SDS011;6664;52.514;13.440;2023-06-14T15:53:23;2.17;;;2.07;;
13197;SDS011;6664;52.514;13.440;2023-06-14T15:56:09;2.63;;;1.90;;
13197;SDS011;6664;52.514;13.440;2023-06-14T15:58:55;6.33;;;2.70;;
13197;SDS011;6664;52.514;13.440;2023-06-14T16:01:46;2.20;;;2.10;;
13197;SDS011;6664;52.514;13.440;2023-06-14T16:04:32;3.07;;;2.17;;
13197;SDS011;6664;52.514;13.440;2023-06-14T16:07:17;6.50;;;2.40;;
13197;SDS011;6664;52.514;13.440;2023-06-14T16:10:03;2.70;;;2.07;;
13197;SDS011;6664;52.514;13.440;2023-06-14T16:12:51;5.40;;;2.40;;
13197;SDS011;6664;52.514;13.440;2023-06-14T16:15:37;4.23;;;2.87;;
13197;SDS011;6664;52.514;13.440;2023-06-14T16:18:22;2.40;;;2.00;;
13197;SDS011;6664;52.514;13.440;2023-06-14T16:21:08;8.40;;;2.90;;
13197;SDS011;6664;52.514;13.440;2023-06-14T16:23:56;2.40;;;2.07;;
13197;SDS011;6664;52.514;13.440;2023-06-14T16:26:42;2.50;;;1.80;;
13197;SDS011;6664;52.514;13.440;2023-06-14T16:29:33;1.77;;;1.67;;
13197;SDS011;6664;52.514;13.440;2023-06-14T16:32:19;3.97;;;1.77;;
13197;SDS011;6664;52.514;13.440;2023-06-14T16:35:07;3.20;;;2.20;;
13197;SDS011;6664;52.514;13.440;2023-06-14T16:37:53;2.07;;;1.90;;
13197;SDS011;6664;52.514;13.440;2023-06-14T16:40:38;2.40;;;2.03;;
13197;SDS011;6664;52.514;13.440;2023-06-14T16:43:28;2.47;;;2.27;;
13197;SDS011;6664;52.514;13.440;2023-06-14T16:46:28;6.53;;;2.10;;
13197;SDS011;6664;52.514;13.440;2023-06-14T16:49:15;5.63;;;2.50;;
13197;SDS011;6664;52.514;13.440;2023-06-14T16:52:01;10.93;;;2.47;;
13197;SDS011;6664;52.514;13.440;2023-06-14T16:54:49;3.50;;;2.30;;
13197;SDS011;6664;52.514;13.440;2023-06-14T16:57:38;2.83;;;2.00;;
13197;SDS011;6664;52.514;13.440;2023-06-14T17:00:25;5.53;;;2.20;;
13197;SDS011;6664;52.514;13.440;2023-06-14T17:03:13;2.67;;;2.03;;
13197;SDS011;6664;52.514;13.440;2023-06-14T17:05:59;6.13;;;2.30;;
13197;SDS011;6664;52.514;13.440;2023-06-14T17:08:46;3.17;;;2.10;;
13197;SDS011;6664;52.514;13.440;2023-06-14T17:11:38;3.03;;;2.00;;
13197;SDS011;6664;52.514;13.440;2023-06-14T17:14:23;3.70;;;2.13;;